createdAt,value
2022-11-16T00:01:33.072Z,97784.00
2022-11-16T00:04:02.562Z,97785.00
2022-11-16T00:06:30.179Z,97791.00
2022-11-16T00:09:20.468Z,97784.00
2022-11-16T00:11:49.784Z,97784.00
2022-11-16T00:14:17.345Z,97768.00
2022-11-16T00:16:44.232Z,97776.00
2022-11-16T00:19:12.278Z,97756.00
2022-11-16T00:21:39.652Z,97760.00
2022-11-16T00:24:06.910Z,97760.00
2022-11-16T00:26:33.784Z,97757.00
2022-11-16T00:29:00.675Z,97741.00
2022-11-16T00:31:27.447Z,97749.00
2022-11-16T00:33:54.321Z,97745.00
2022-11-16T00:36:21.166Z,97738.00
2022-11-16T00:38:51.526Z,97741.00
2022-11-16T00:41:18.298Z,97730.00
2022-11-16T00:43:45.172Z,97731.00
2022-11-16T00:46:11.937Z,97731.00
2022-11-16T00:48:38.737Z,97736.00
2022-11-16T00:51:05.794Z,97736.00
2022-11-16T00:53:33.161Z,97738.00
2022-11-16T00:55:59.953Z,97738.00
2022-11-16T00:58:26.740Z,97739.00
2022-11-16T01:00:53.586Z,97745.00
2022-11-16T01:03:20.443Z,97748.00
2022-11-16T01:05:47.595Z,97752.00
2022-11-16T01:08:15.910Z,97750.00
2022-11-16T01:10:42.811Z,97756.00
2022-11-16T01:13:11.495Z,97771.00
2022-11-16T01:15:38.341Z,97768.00
2022-11-16T01:18:05.386Z,97775.00
2022-11-16T01:20:32.302Z,97773.00
2022-11-16T01:22:59.115Z,97778.00
2022-11-16T01:25:25.881Z,97777.00
2022-11-16T01:27:52.748Z,97783.00
2022-11-16T01:30:19.765Z,97789.00
2022-11-16T01:32:46.598Z,97797.00
2022-11-16T01:35:18.869Z,97810.00
2022-11-16T01:37:45.914Z,97793.00
2022-11-16T01:40:14.178Z,97804.00
2022-11-16T01:42:41.619Z,97802.00
2022-11-16T01:45:38.663Z,97799.00
2022-11-16T01:48:06.151Z,97794.00
2022-11-16T01:50:33.134Z,97803.00
2022-11-16T01:53:04.511Z,97801.00
2022-11-16T01:55:34.201Z,97825.00
2022-11-16T01:58:02.659Z,97839.00
2022-11-16T02:00:29.613Z,97853.00
2022-11-16T02:02:56.619Z,97838.00
2022-11-16T02:05:39.908Z,97812.00
2022-11-16T02:09:13.347Z,97789.00
2022-11-16T02:12:11.000Z,97762.00
2022-11-16T02:15:14.428Z,97806.00
2022-11-16T02:18:30.279Z,97822.00
2022-11-16T02:21:42.554Z,97819.00
2022-11-16T02:24:18.518Z,97831.00
2022-11-16T02:27:29.069Z,97821.00
2022-11-16T02:29:57.712Z,97820.00
2022-11-16T02:33:04.319Z,97807.00
2022-11-16T02:35:49.700Z,97802.00
2022-11-16T02:38:27.844Z,97789.00
2022-11-16T02:41:06.340Z,97795.00
2022-11-16T02:43:42.706Z,97795.00
2022-11-16T02:46:19.696Z,97787.00
2022-11-16T02:48:56.206Z,97785.00
2022-11-16T02:51:25.470Z,97798.00
2022-11-16T02:54:05.417Z,97791.00
2022-11-16T02:56:43.928Z,97811.00
2022-11-16T02:59:15.240Z,97817.00
2022-11-16T03:01:59.609Z,97820.00
2022-11-16T03:04:44.194Z,97813.00
2022-11-16T03:07:17.269Z,97799.00
2022-11-16T03:09:47.590Z,97803.00
2022-11-16T03:12:22.985Z,97796.00
2022-11-16T03:14:57.395Z,97806.00
2022-11-16T03:17:47.742Z,97807.00
2022-11-16T03:20:29.777Z,97802.00
2022-11-16T03:23:05.421Z,97795.00
2022-11-16T03:25:43.146Z,97799.00
2022-11-16T03:28:17.290Z,97795.00
2022-11-16T03:30:53.109Z,97808.00
2022-11-16T03:33:27.533Z,97798.00
2022-11-16T03:36:19.705Z,97802.00
2022-11-16T03:38:50.762Z,97801.00
2022-11-16T03:41:21.785Z,97798.00
2022-11-16T03:43:50.059Z,97805.00
2022-11-16T03:46:18.961Z,97795.00
2022-11-16T03:48:45.917Z,97801.00
2022-11-16T03:51:13.185Z,97804.00
2022-11-16T03:53:40.240Z,97809.00
2022-11-16T03:56:07.536Z,97811.00
2022-11-16T03:58:34.458Z,97810.00
2022-11-16T04:01:03.493Z,97808.00
2022-11-16T04:03:30.478Z,97813.00
2022-11-16T04:06:16.630Z,97808.00
2022-11-16T04:09:02.141Z,97805.00
2022-11-16T04:11:47.761Z,97811.00
2022-11-16T04:14:39.573Z,97806.00
2022-11-16T04:17:34.580Z,97808.00
2022-11-16T04:20:19.989Z,97816.00
2022-11-16T04:23:32.969Z,97809.00
2022-11-16T04:26:00.535Z,97818.00
2022-11-16T04:28:34.644Z,97818.00
2022-11-16T04:31:23.367Z,97817.00
2022-11-16T04:34:11.231Z,97814.00
2022-11-16T04:36:56.645Z,97810.00
2022-11-16T04:39:23.444Z,97808.00
2022-11-16T04:42:08.574Z,97804.00
2022-11-16T04:44:54.930Z,97812.00
2022-11-16T04:47:21.741Z,97812.00
2022-11-16T04:49:48.614Z,97812.00
2022-11-16T04:52:15.430Z,97801.00
2022-11-16T04:54:42.241Z,97812.00
2022-11-16T04:57:09.090Z,97801.00
2022-11-16T04:59:35.865Z,97802.00
2022-11-16T05:02:08.581Z,97793.00
2022-11-16T05:04:42.333Z,97798.00
2022-11-16T05:07:15.022Z,97795.00
2022-11-16T05:09:47.666Z,97810.00
2022-11-16T05:12:27.488Z,97814.00
2022-11-16T05:14:55.663Z,97813.00
2022-11-16T05:17:24.798Z,97818.00
2022-11-16T05:20:10.112Z,97807.00
2022-11-16T05:22:37.217Z,97814.00
2022-11-16T05:25:06.637Z,97819.00
2022-11-16T05:27:33.845Z,97822.00
2022-11-16T05:30:00.834Z,97824.00
2022-11-16T05:32:28.416Z,97818.00
2022-11-16T05:34:55.130Z,97829.00
2022-11-16T05:37:26.148Z,97828.00
2022-11-16T05:39:54.865Z,97837.00
2022-11-16T05:42:21.715Z,97844.00
2022-11-16T05:44:48.662Z,97845.00
2022-11-16T05:47:15.772Z,97851.00
2022-11-16T05:49:42.617Z,97851.00
2022-11-16T05:52:09.436Z,97849.00
2022-11-16T05:54:36.272Z,97847.00
2022-11-16T05:57:03.084Z,97853.00
2022-11-16T05:59:30.068Z,97850.00
2022-11-16T06:01:57.811Z,97859.00
2022-11-16T06:04:25.082Z,97856.00
2022-11-16T06:06:52.502Z,97855.00
2022-11-16T06:09:19.589Z,97862.00
2022-11-16T06:11:46.458Z,97864.00
2022-11-16T06:14:13.328Z,97866.00
2022-11-16T06:16:40.112Z,97870.00
2022-11-16T06:19:06.942Z,97869.00
2022-11-16T06:21:34.016Z,97870.00
2022-11-16T06:24:02.627Z,97864.00
2022-11-16T06:26:29.484Z,97866.00
2022-11-16T06:28:56.279Z,97868.00
2022-11-16T06:31:23.136Z,97862.00
2022-11-16T06:33:49.963Z,97867.00
2022-11-16T06:36:16.921Z,97875.00
2022-11-16T06:38:43.744Z,97876.00
2022-11-16T06:41:10.554Z,97879.00
2022-11-16T06:43:37.420Z,97882.00
2022-11-16T06:46:04.390Z,97881.00
2022-11-16T06:48:31.508Z,97879.00
2022-11-16T06:50:58.597Z,97883.00
2022-11-16T06:53:29.190Z,97889.00
2022-11-16T06:56:01.375Z,97889.00
2022-11-16T06:58:31.587Z,97892.00
2022-11-16T07:01:08.881Z,97890.00
2022-11-16T07:03:36.044Z,97896.00
2022-11-16T07:06:11.571Z,97892.00
2022-11-16T07:08:38.825Z,97895.00
2022-11-16T07:11:08.683Z,97893.00
2022-11-16T07:13:37.627Z,97889.00
2022-11-16T07:16:07.448Z,97898.00
2022-11-16T07:18:40.040Z,97900.00
2022-11-16T07:21:16.446Z,97897.00
2022-11-16T07:23:43.560Z,97894.00
2022-11-16T07:26:11.659Z,97902.00
2022-11-16T07:28:42.088Z,97892.00
2022-11-16T07:31:55.515Z,97900.00
2022-11-16T07:34:22.395Z,97907.00
2022-11-16T07:36:49.169Z,97903.00
2022-11-16T07:39:15.969Z,97906.00
2022-11-16T07:41:44.320Z,97912.00
2022-11-16T07:44:15.259Z,97919.00
2022-11-16T07:46:47.034Z,97919.00
2022-11-16T07:49:17.030Z,97914.00
2022-11-16T07:51:45.670Z,97920.00
2022-11-16T07:54:14.772Z,97924.00
2022-11-16T07:56:42.173Z,97925.00
2022-11-16T07:59:09.216Z,97926.00
2022-11-16T08:01:36.110Z,97922.00
2022-11-16T08:04:03.193Z,97924.00
2022-11-16T08:06:39.471Z,97923.00
2022-11-16T08:09:38.000Z,97924.00
2022-11-16T08:16:22.415Z,97929.00
2022-11-16T08:18:49.881Z,97928.00
2022-11-16T08:21:18.732Z,97923.00
2022-11-16T08:23:46.105Z,97923.00
2022-11-16T08:26:17.063Z,97923.00
2022-11-16T08:41:29.454Z,97931.00
2022-11-16T08:45:23.994Z,97936.00
2022-11-16T08:49:14.503Z,97935.00
2022-11-16T08:55:49.943Z,97926.00
2022-11-16T08:58:16.768Z,97931.00
2022-11-16T09:00:43.660Z,97932.00
2022-11-16T09:03:10.540Z,97923.00
2022-11-16T09:05:39.079Z,97935.00
2022-11-16T09:08:05.990Z,97934.00
2022-11-16T09:10:34.752Z,97945.00
2022-11-16T09:13:01.605Z,97937.00
2022-11-16T09:15:28.444Z,97926.00
2022-11-16T09:17:55.805Z,97940.00
2022-11-16T09:20:22.719Z,97922.00
2022-11-16T09:22:49.664Z,97932.00
2022-11-16T09:25:18.550Z,97932.00
2022-11-16T09:27:47.302Z,97926.00
2022-11-16T09:30:14.946Z,97920.00
2022-11-16T09:32:41.692Z,97919.00
2022-11-16T09:35:09.145Z,97922.00
2022-11-16T09:37:35.939Z,97919.00
2022-11-16T09:40:02.804Z,97929.00
2022-11-16T09:42:41.553Z,97924.00
2022-11-16T09:46:04.864Z,97934.00
2022-11-16T09:48:36.866Z,97931.00
2022-11-16T09:51:09.987Z,97942.00
2022-11-16T09:53:50.894Z,97941.00
2022-11-16T09:56:26.990Z,97938.00
2022-11-16T09:59:11.107Z,97943.00
2022-11-16T10:01:50.719Z,97938.00
2022-11-16T10:04:36.921Z,97936.00
2022-11-16T10:07:12.847Z,97935.00
2022-11-16T10:09:39.894Z,97935.00
2022-11-16T10:12:43.611Z,97951.00
2022-11-16T10:15:34.502Z,97947.00
2022-11-16T10:18:25.878Z,97936.00
2022-11-16T10:21:08.106Z,97926.00
2022-11-16T10:23:59.702Z,97928.00
2022-11-16T10:26:55.252Z,97920.00
2022-11-16T10:30:09.383Z,97919.00
2022-11-16T10:32:52.071Z,97910.00
2022-11-16T10:35:26.738Z,97914.00
2022-11-16T10:37:54.229Z,97912.00
2022-11-16T10:40:37.760Z,97911.00
2022-11-16T10:43:23.213Z,97910.00
2022-11-16T10:46:20.666Z,97908.00
2022-11-16T10:49:09.009Z,97905.00
2022-11-16T10:51:35.766Z,97898.00
2022-11-16T10:54:04.509Z,97892.00
2022-11-16T10:56:39.669Z,97909.00
2022-11-16T10:59:15.129Z,97900.00
2022-11-16T11:01:53.339Z,97893.00
2022-11-16T11:04:24.433Z,97896.00
2022-11-16T11:07:21.451Z,97889.00
2022-11-16T11:09:55.498Z,97882.00
2022-11-16T11:12:39.959Z,97880.00
2022-11-16T11:15:25.792Z,97877.00
2022-11-16T11:18:24.081Z,97885.00
2022-11-16T11:21:08.151Z,97877.00
2022-11-16T11:23:59.451Z,97875.00
2022-11-16T11:26:41.614Z,97871.00
2022-11-16T11:29:34.550Z,97867.00
2022-11-16T11:32:07.650Z,97855.00
2022-11-16T11:34:43.593Z,97859.00
2022-11-16T11:37:33.957Z,97852.00
2022-11-16T11:40:09.801Z,97846.00
2022-11-16T11:42:50.877Z,97850.00
2022-11-16T11:45:20.878Z,97848.00
2022-11-16T11:47:58.660Z,97843.00
2022-11-16T11:50:36.622Z,97851.00
2022-11-16T11:53:23.940Z,97849.00
2022-11-16T11:55:59.174Z,97844.00
2022-11-16T11:58:34.348Z,97834.00
2022-11-16T12:02:07.185Z,97831.00
2022-11-16T12:05:19.044Z,97824.00
2022-11-16T12:08:33.409Z,97825.00
2022-11-16T12:11:29.018Z,97819.00
2022-11-16T12:14:11.337Z,97820.00
2022-11-16T12:17:07.102Z,97821.00
2022-11-16T12:20:03.170Z,97817.00
2022-11-16T12:23:17.773Z,97812.00
2022-11-16T12:26:02.891Z,97807.00
2022-11-16T12:29:12.164Z,97800.00
2022-11-16T12:31:51.846Z,97806.00
2022-11-16T12:34:57.509Z,97796.00
2022-11-16T12:37:39.449Z,97786.00
2022-11-16T12:40:30.883Z,97780.00
2022-11-16T12:43:36.635Z,97762.00
2022-11-16T12:46:19.757Z,97774.00
2022-11-16T12:49:24.275Z,97768.00
2022-11-16T12:52:25.456Z,97769.00
2022-11-16T12:55:28.866Z,97767.00
2022-11-16T12:58:20.677Z,97752.00
2022-11-16T13:01:29.909Z,97746.00
2022-11-16T13:04:14.881Z,97744.00
2022-11-16T13:07:11.647Z,97741.00
2022-11-16T13:09:48.542Z,97732.00
2022-11-16T13:12:23.518Z,97727.00
2022-11-16T13:14:54.909Z,97732.00
2022-11-16T13:17:27.386Z,97739.00
2022-11-16T13:20:28.029Z,97735.00
2022-11-16T13:23:45.974Z,97747.00
2022-11-16T13:26:40.835Z,97737.00
2022-11-16T13:29:30.253Z,97740.00
2022-11-16T13:32:13.851Z,97745.00
2022-11-16T13:34:41.694Z,97737.00
2022-11-16T13:37:39.440Z,97741.00
2022-11-16T13:40:06.260Z,97727.00
2022-11-16T13:43:15.776Z,97726.00
2022-11-16T13:46:00.810Z,97734.00
2022-11-16T13:48:38.436Z,97735.00
2022-11-16T13:51:17.832Z,97734.00
2022-11-16T13:54:43.308Z,97731.00
2022-11-16T13:56:50.583Z,97725.00
2022-11-16T13:59:26.515Z,97717.00
2022-11-16T14:02:26.788Z,97718.00
2022-11-16T14:04:59.432Z,97717.00
2022-11-16T14:07:42.659Z,97718.00
2022-11-16T14:10:11.984Z,97712.00
2022-11-16T14:12:38.723Z,97717.00
2022-11-16T14:15:32.695Z,97709.00
2022-11-16T14:18:09.154Z,97714.00
2022-11-16T14:20:51.236Z,97704.00
2022-11-16T14:23:58.484Z,97700.00
2022-11-16T14:27:08.519Z,97699.00
2022-11-16T14:30:00.382Z,97691.00
2022-11-16T14:32:52.209Z,97692.00
2022-11-16T14:35:36.713Z,97690.00
2022-11-16T14:38:21.587Z,97688.00
2022-11-16T14:40:56.340Z,97686.00
2022-11-16T14:43:32.993Z,97686.00
2022-11-16T14:46:09.253Z,97680.00
2022-11-16T14:48:45.505Z,97680.00
2022-11-16T14:51:23.106Z,97666.00
2022-11-16T14:53:56.017Z,97667.00
2022-11-16T14:56:22.913Z,97667.00
2022-11-16T14:58:59.724Z,97678.00
2022-11-16T15:01:35.677Z,97672.00
2022-11-16T15:04:09.699Z,97666.00
2022-11-16T15:07:03.934Z,97662.00
2022-11-16T15:09:43.961Z,97662.00
2022-11-16T15:12:37.694Z,97652.00
2022-11-16T15:15:31.532Z,97663.00
2022-11-16T15:18:04.039Z,97665.00
2022-11-16T15:20:34.439Z,97666.00
2022-11-16T15:23:04.765Z,97667.00
2022-11-16T15:25:45.098Z,97647.00
2022-11-16T15:28:24.796Z,97648.00
2022-11-16T15:31:00.721Z,97646.00
2022-11-16T15:33:36.728Z,97639.00
2022-11-16T15:36:24.684Z,97640.00
2022-11-16T15:38:57.493Z,97637.00
2022-11-16T15:41:27.997Z,97636.00
2022-11-16T15:44:15.287Z,97621.00
2022-11-16T15:46:47.107Z,97625.00
2022-11-16T15:49:31.221Z,97622.00
2022-11-16T15:52:00.423Z,97621.00
2022-11-16T15:54:30.589Z,97620.00
2022-11-16T16:00:37.489Z,97623.00
2022-11-16T16:03:24.245Z,97628.00
2022-11-16T16:05:53.026Z,97617.00
2022-11-16T16:08:37.497Z,97620.00
2022-11-16T16:11:27.173Z,97608.00
2022-11-16T16:14:01.673Z,97615.00
2022-11-16T16:16:37.341Z,97609.00
2022-11-16T16:19:27.110Z,97599.00
2022-11-16T16:21:54.046Z,97614.00
2022-11-16T16:24:53.864Z,97623.00
2022-11-16T16:27:27.973Z,97613.00
2022-11-16T16:29:57.271Z,97611.00
2022-11-16T16:32:27.103Z,97621.00
2022-11-16T16:34:56.935Z,97614.00
2022-11-16T16:37:28.136Z,97620.00
2022-11-16T16:39:55.146Z,97609.00
2022-11-16T16:42:22.302Z,97609.00
2022-11-16T16:44:50.050Z,97615.00
2022-11-16T16:47:21.904Z,97620.00
2022-11-16T16:49:51.705Z,97612.00
2022-11-16T16:52:18.929Z,97609.00
2022-11-16T16:54:45.806Z,97605.00
2022-11-16T16:57:18.110Z,97616.00
2022-11-16T16:59:48.074Z,97613.00
2022-11-16T17:02:16.324Z,97607.00
2022-11-16T17:04:49.314Z,97615.00
2022-11-16T17:07:17.372Z,97609.00
2022-11-16T17:09:44.314Z,97602.00
2022-11-16T17:12:11.324Z,97604.00
2022-11-16T17:14:38.147Z,97594.00
2022-11-16T17:17:05.047Z,97599.00
2022-11-16T17:19:31.939Z,97587.00
2022-11-16T17:21:59.897Z,97590.00
2022-11-16T17:24:26.717Z,97583.00
2022-11-16T17:26:53.614Z,97591.00
2022-11-16T17:29:20.380Z,97583.00
2022-11-16T17:31:48.153Z,97579.00
2022-11-16T17:34:14.994Z,97570.00
2022-11-16T17:36:43.235Z,97567.00
2022-11-16T17:39:10.045Z,97561.00
2022-11-16T17:41:37.498Z,97562.00
2022-11-16T17:44:05.183Z,97556.00
2022-11-16T17:46:31.964Z,97558.00
2022-11-16T17:48:58.846Z,97554.00
2022-11-16T17:51:27.804Z,97523.00
2022-11-16T17:53:54.642Z,97511.00
2022-11-16T17:56:28.340Z,97513.00
2022-11-16T17:58:58.408Z,97495.00
2022-11-16T18:01:26.181Z,97498.00
2022-11-16T18:03:53.163Z,97495.00
2022-11-16T18:06:24.951Z,97488.00
2022-11-16T18:08:52.469Z,97480.00
2022-11-16T18:11:21.832Z,97475.00
2022-11-16T18:13:57.065Z,97469.00
2022-11-16T18:16:27.324Z,97485.00
2022-11-16T18:19:03.546Z,97477.00
2022-11-16T18:21:31.684Z,97470.00
2022-11-16T18:24:02.751Z,97464.00
2022-11-16T18:26:29.555Z,97452.00
2022-11-16T18:28:56.344Z,97457.00
2022-11-16T18:31:24.837Z,97453.00
2022-11-16T18:33:52.198Z,97439.00
2022-11-16T18:36:21.223Z,97433.00
2022-11-16T18:38:48.712Z,97441.00
2022-11-16T18:41:20.473Z,97440.00
2022-11-16T18:44:00.168Z,97450.00
2022-11-16T18:46:30.847Z,97446.00
2022-11-16T18:48:58.821Z,97445.00
2022-11-16T18:51:28.585Z,97452.00
2022-11-16T18:53:56.091Z,97450.00
2022-11-16T18:56:23.917Z,97461.00
2022-11-16T18:58:52.645Z,97450.00
2022-11-16T19:01:24.778Z,97462.00
2022-11-16T19:03:53.333Z,97477.00
2022-11-16T19:06:21.296Z,97480.00
2022-11-16T19:08:56.228Z,97489.00
2022-11-16T19:11:24.357Z,97488.00
2022-11-16T19:14:31.671Z,97472.00
2022-11-16T19:17:01.290Z,97475.00
2022-11-16T19:19:52.530Z,97466.00
2022-11-16T19:22:20.435Z,97467.00
2022-11-16T19:25:14.435Z,97449.00
2022-11-16T19:27:50.253Z,97428.00
2022-11-16T19:30:18.135Z,97419.00
2022-11-16T19:32:45.494Z,97412.00
2022-11-16T19:35:38.605Z,97411.00
2022-11-16T19:38:05.370Z,97423.00
2022-11-16T19:45:44.114Z,97397.00
2022-11-16T19:48:11.308Z,97396.00
2022-11-16T19:50:38.125Z,97405.00
2022-11-16T19:53:10.714Z,97412.00
2022-11-16T19:56:49.276Z,97427.00
2022-11-16T20:00:36.860Z,97430.00
2022-11-16T20:03:04.015Z,97439.00
2022-11-16T20:05:50.664Z,97442.00
2022-11-16T20:08:21.430Z,97434.00
2022-11-16T20:10:51.696Z,97428.00
2022-11-16T20:13:18.497Z,97435.00
2022-11-16T20:15:45.271Z,97423.00
2022-11-16T20:19:11.881Z,97420.00
2022-11-16T20:22:02.110Z,97419.00
2022-11-16T20:27:09.588Z,97420.00
2022-11-16T20:29:36.726Z,97423.00
2022-11-16T20:32:03.554Z,97430.00
2022-11-16T20:38:20.257Z,97420.00
2022-11-16T20:40:47.047Z,97419.00
2022-11-16T20:43:14.366Z,97423.00
2022-11-16T20:46:09.933Z,97417.00
2022-11-16T20:48:57.065Z,97428.00
2022-11-16T20:51:24.028Z,97425.00
2022-11-16T20:54:02.675Z,97431.00
2022-11-16T20:56:29.949Z,97425.00
2022-11-16T20:58:58.092Z,97433.00
2022-11-16T21:01:31.984Z,97440.00
2022-11-16T21:04:02.550Z,97433.00
2022-11-16T21:06:30.325Z,97433.00
2022-11-16T21:10:00.421Z,97438.00
2022-11-16T21:12:56.572Z,97435.00
2022-11-16T21:15:23.358Z,97430.00
2022-11-16T21:17:50.133Z,97429.00
2022-11-16T21:20:27.496Z,97419.00
2022-11-16T21:26:58.267Z,97395.00
2022-11-16T21:29:36.860Z,97379.00
2022-11-16T21:32:12.226Z,97392.00
2022-11-16T21:34:40.389Z,97398.00
2022-11-16T21:37:58.891Z,97403.00
2022-11-16T21:40:50.394Z,97388.00
2022-11-16T21:43:23.046Z,97392.00
2022-11-16T21:45:56.377Z,97394.00
2022-11-16T21:48:23.136Z,97392.00
2022-11-16T21:51:10.139Z,97393.00
2022-11-16T21:53:52.938Z,97392.00
2022-11-16T21:56:23.118Z,97384.00
2022-11-16T21:58:54.174Z,97370.00
2022-11-16T22:01:46.549Z,97351.00
2022-11-16T22:04:31.685Z,97336.00
2022-11-16T22:07:17.075Z,97301.00
2022-11-16T22:09:43.857Z,97316.00
2022-11-16T22:12:13.568Z,97329.00
2022-11-16T22:14:53.362Z,97320.00
2022-11-16T22:17:43.441Z,97321.00
2022-11-16T22:20:22.885Z,97319.00
2022-11-16T22:22:57.412Z,97320.00
2022-11-16T22:25:36.378Z,97315.00
2022-11-16T22:31:13.572Z,97318.00
2022-11-16T22:33:41.078Z,97314.00
2022-11-16T22:36:28.509Z,97306.00
2022-11-16T22:39:03.088Z,97293.00
2022-11-16T22:41:30.085Z,97297.00
2022-11-16T22:43:56.891Z,97292.00
2022-11-16T22:46:27.399Z,97284.00
2022-11-16T22:48:57.395Z,97285.00
2022-11-16T22:51:29.932Z,97283.00
2022-11-16T22:54:07.286Z,97275.00
2022-11-16T22:56:44.228Z,97264.00
2022-11-16T22:59:11.101Z,97267.00
2022-11-16T23:01:38.069Z,97245.00
2022-11-16T23:04:05.337Z,97249.00
2022-11-16T23:06:32.355Z,97247.00
2022-11-16T23:08:59.365Z,97237.00
2022-11-16T23:11:45.551Z,97241.00
2022-11-16T23:14:35.843Z,97242.00
2022-11-16T23:17:03.982Z,97241.00
2022-11-16T23:19:49.292Z,97238.00
2022-11-16T23:22:38.719Z,97227.00
2022-11-16T23:25:26.684Z,97221.00
2022-11-16T23:28:04.878Z,97218.00
2022-11-16T23:30:32.166Z,97221.00
2022-11-16T23:32:59.009Z,97212.00
2022-11-16T23:35:25.809Z,97226.00
2022-11-16T23:38:05.295Z,97210.00
2022-11-16T23:40:35.608Z,97206.00
2022-11-16T23:43:21.819Z,97201.00
2022-11-16T23:45:49.407Z,97201.00
2022-11-16T23:48:19.741Z,97196.00
2022-11-16T23:50:46.922Z,97192.00
2022-11-16T23:53:14.403Z,97195.00
2022-11-16T23:55:41.573Z,97201.00
2022-11-16T23:58:14.751Z,97183.00
